Time;durP1;ratioP1;P1;durP2;ratioP2;P2;SDS_P1;SDS_P2;PMS_P1;PMS_P2;Temp;Humidity;BMP_temperature;BMP_pressure;BME280_temperature;BME280_humidity;BME280_pressure;Samples;Min_cycle;Max_cycle;Signal;HPM_P1;HPM_P2
2021/12/23 00:00:33;;;;;;;;;52.25;38.00;;;;;2.38;65.90;101446.28;5022550;28;45225;-59
2021/12/23 00:02:59;;;;;;;;;67.67;43.67;;;;;2.37;66.18;101434.16;5022407;28;45566;-59
2021/12/23 00:05:24;;;;;;;;;58.25;43.75;;;;;2.36;66.25;101435.00;5022342;28;45955;-59
2021/12/23 00:07:50;;;;;;;;;54.67;43.00;;;;;2.33;66.28;101426.41;5022148;28;45391;-59
2021/12/23 00:10:15;;;;;;;;;56.67;42.00;;;;;2.33;66.11;101431.59;5022864;28;45274;-59
2021/12/23 00:12:44;;;;;;;;;51.33;42.00;;;;;2.32;66.09;101432.50;5022501;28;45487;-59
2021/12/23 00:15:36;;;;;;;;;67.67;46.67;;;;;2.31;66.28;101426.44;5022296;28;46255;-59
2021/12/23 00:18:16;;;;;;;;;42.00;32.67;;;;;2.28;65.87;101412.59;5010867;28;45340;-59
2021/12/23 00:26:06;;;;;;;;;59.67;48.67;;;;;2.20;66.74;101397.97;5010074;28;45424;-59
2021/12/23 00:28:32;;;;;;;;;57.67;42.67;;;;;2.15;66.72;101397.19;5021996;28;45371;-59
2021/12/23 00:30:59;;;;;;;;;65.67;44.67;;;;;2.13;66.87;101396.38;5022478;28;45443;-58
2021/12/23 00:33:25;;;;;;;;;62.67;43.67;;;;;2.13;66.79;101400.69;5022135;28;45393;-58
2021/12/23 00:35:53;;;;;;;;;42.00;39.67;;;;;2.10;66.72;101392.94;5022175;28;45305;-59
2021/12/23 00:38:25;;;;;;;;;59.33;44.00;;;;;2.07;66.89;101390.41;5021742;28;45201;-58
2021/12/23 00:40:52;;;;;;;;;59.33;43.33;;;;;2.05;66.83;101384.34;5022005;28;45293;-58
2021/12/23 00:43:18;;;;;;;;;42.00;38.67;;;;;2.05;67.19;101381.75;5021582;28;45549;-58
2021/12/23 00:45:44;;;;;;;;;58.00;45.33;;;;;2.07;66.86;101385.19;5021856;28;45493;-58
2021/12/23 00:48:10;;;;;;;;;51.00;41.75;;;;;2.04;67.44;101386.06;5021526;28;45380;-58
2021/12/23 00:50:35;;;;;;;;;65.33;45.67;;;;;2.01;67.31;101378.34;5022036;28;45272;-58
2021/12/23 00:53:05;;;;;;;;;63.67;42.67;;;;;1.99;67.04;101379.25;5021495;28;45519;-58
2021/12/23 00:55:31;;;;;;;;;59.67;45.67;;;;;1.98;67.57;101375.78;5021808;28;45348;-58
2021/12/23 00:57:59;;;;;;;;;63.25;41.25;;;;;1.93;67.31;101368.03;5021529;28;45279;-58
2021/12/23 01:00:25;;;;;;;;;72.00;48.67;;;;;1.93;67.25;101362.00;5021754;28;45345;-58
2021/12/23 01:02:51;;;;;;;;;61.75;44.25;;;;;1.93;67.66;101354.19;5021481;28;45269;-58
2021/12/23 01:05:19;;;;;;;;;64.67;47.00;;;;;1.93;67.36;101357.66;5021470;28;45332;-58
2021/12/23 01:07:45;;;;;;;;;57.00;38.50;;;;;1.92;68.00;101363.75;5021207;28;45207;-58
2021/12/23 01:10:11;;;;;;;;;71.00;45.33;;;;;1.91;67.47;101371.56;5021946;28;45227;-59
2021/12/23 01:12:44;;;;;;;;;65.33;46.00;;;;;1.89;67.75;101363.75;5021511;28;45507;-59
2021/12/23 01:15:16;;;;;;;;;69.67;46.33;;;;;1.88;68.02;101354.25;5021315;28;46335;-59
2021/12/23 01:17:56;;;;;;;;;48.00;41.75;;;;;1.88;68.29;101363.78;5021166;28;45308;-58
2021/12/23 01:20:33;;;;;;;;;68.67;47.67;;;;;1.87;68.23;101367.25;5021372;28;45207;-57
2021/12/23 01:23:06;;;;;;;;;60.75;41.50;;;;;1.87;68.39;101362.06;5021388;28;45518;-58
2021/12/23 01:25:34;;;;;;;;;67.33;42.67;;;;;1.89;68.45;101350.78;5021135;28;45517;-58
2021/12/23 01:28:00;;;;;;;;;61.33;44.00;;;;;1.89;67.99;101350.78;5021415;28;45457;-58
2021/12/23 01:30:26;;;;;;;;;53.75;42.25;;;;;1.89;67.99;101352.50;5021374;28;45314;-58
2021/12/23 01:32:54;;;;;;;;;52.33;42.00;;;;;1.88;68.29;101341.25;5021431;28;45297;-58
2021/12/23 01:35:20;;;;;;;;;66.67;43.00;;;;;1.89;68.74;101335.19;5020826;28;45378;-58
2021/12/23 01:37:46;;;;;;;;;48.00;41.33;;;;;1.89;68.58;101340.38;5021205;28;45411;-59
2021/12/23 01:40:15;;;;;;;;;57.67;44.00;;;;;1.89;68.46;101335.19;5021123;28;45522;-58
2021/12/23 01:42:41;;;;;;;;;52.00;38.00;;;;;1.89;68.43;101332.59;5021293;28;45311;-58
2021/12/23 01:45:13;;;;;;;;;50.25;40.25;;;;;1.90;68.90;101333.47;5020800;28;46049;-58
2021/12/23 01:47:40;;;;;;;;;57.00;46.67;;;;;1.91;68.27;101333.44;5021257;28;45424;-58
2021/12/23 01:50:07;;;;;;;;;51.00;41.33;;;;;1.92;68.95;101324.78;5020962;28;45477;-58
2021/12/23 01:52:33;;;;;;;;;52.00;41.00;;;;;1.93;69.00;101326.47;5020748;28;46377;-58
2021/12/23 01:54:58;;;;;;;;;64.33;42.33;;;;;1.98;68.50;101328.16;5019529;28;45623;-58
2021/12/23 01:57:29;;;;;;;;;56.00;46.00;;;;;2.02;68.19;101327.22;5020936;28;45416;-59
2021/12/23 01:59:55;;;;;;;;;64.67;46.00;;;;;2.04;68.93;101320.25;5020771;28;45368;-59
2021/12/23 02:02:22;;;;;;;;;55.33;43.33;;;;;2.07;68.75;101310.69;5020938;28;45371;-59
2021/12/23 02:04:48;;;;;;;;;46.00;38.50;;;;;2.11;68.73;101312.34;5020769;28;46079;-59
2021/12/23 02:07:13;;;;;;;;;71.25;47.00;;;;;2.12;68.26;101308.88;5020541;28;45399;-59
2021/12/23 02:09:38;;;;;;;;;58.00;44.00;;;;;2.15;68.08;101313.19;5020784;28;45336;-59
2021/12/23 02:12:05;;;;;;;;;66.00;47.75;;;;;2.18;68.35;101313.13;5021049;28;45311;-59
2021/12/23 02:14:30;;;;;;;;;47.50;40.75;;;;;2.20;68.75;101304.41;5020367;28;45232;-59
2021/12/23 02:16:56;;;;;;;;;55.75;42.50;;;;;2.22;68.64;101313.06;5020483;28;45213;-59
2021/12/23 02:19:21;;;;;;;;;57.00;45.75;;;;;2.23;68.31;101313.91;5020877;28;45205;-59
2021/12/23 02:21:48;;;;;;;;;56.00;44.75;;;;;2.24;68.67;101311.28;5020359;28;45290;-59
2021/12/23 02:24:14;;;;;;;;;65.50;46.25;;;;;2.28;68.38;101316.44;5020424;28;45349;-59
2021/12/23 02:26:41;;;;;;;;;56.75;41.25;;;;;2.28;68.64;101311.22;5020498;28;45436;-59
2021/12/23 02:29:08;;;;;;;;;67.25;44.25;;;;;2.28;68.77;101309.47;5020533;28;45413;-59
2021/12/23 02:31:34;;;;;;;;;56.00;36.00;;;;;2.26;68.22;101307.81;5020579;28;45543;-58
2021/12/23 02:34:00;;;;;;;;;59.25;43.00;;;;;2.27;68.32;101302.56;5020125;28;46388;-59
2021/12/23 02:36:30;;;;;;;;;63.50;45.75;;;;;2.31;68.29;101300.81;5035453;28;45663;-59
2021/12/23 02:39:00;;;;;;;;;52.25;44.50;;;;;2.33;68.51;101288.63;5020361;28;45250;-59
2021/12/23 02:41:26;;;;;;;;;58.75;41.50;;;;;2.34;68.59;101293.78;5020356;28;45241;-59
2021/12/23 02:43:51;;;;;;;;;64.00;44.25;;;;;2.35;68.46;101294.66;5020404;28;45225;-58
2021/12/23 02:46:19;;;;;;;;;58.50;39.00;;;;;2.34;67.89;101287.75;5020222;28;45233;-59
2021/12/23 02:48:45;;;;;;;;;58.00;40.50;;;;;2.35;68.49;101285.09;5020165;28;45380;-59
2021/12/23 02:51:13;;;;;;;;;64.75;43.00;;;;;2.34;67.92;101282.53;5020224;28;45418;-59
2021/12/23 02:53:40;;;;;;;;;50.50;45.00;;;;;2.36;68.18;101279.03;5018481;28;46264;-58
2021/12/23 02:56:10;;;;;;;;;51.00;42.50;;;;;2.38;68.32;101268.63;5019973;28;45181;-59
2021/12/23 02:58:36;;;;;;;;;55.50;45.00;;;;;2.40;68.51;101282.44;5019969;28;45447;-59
2021/12/23 03:01:07;;;;;;;;;58.00;41.00;;;;;2.40;68.02;101280.69;5020016;28;45479;-59
2021/12/23 03:03:33;;;;;;;;;56.00;44.00;;;;;2.41;68.28;101281.56;5019794;28;45219;-58
2021/12/23 03:05:59;;;;;;;;;61.00;46.33;;;;;2.42;68.10;101280.66;5021806;28;45347;-58
2021/12/23 03:08:45;;;;;;;;;56.33;44.00;;;;;2.41;68.15;101269.41;5023469;28;45486;-59
2021/12/23 03:11:12;;;;;;;;;59.33;43.33;;;;;2.42;67.71;101267.66;5023436;28;45430;-59
2021/12/23 03:13:39;;;;;;;;;59.67;38.33;;;;;2.43;68.05;101269.38;5023402;28;45503;-59
2021/12/23 03:16:05;;;;;;;;;57.67;45.00;;;;;2.43;68.28;101270.25;5023155;28;45272;-59
2021/12/23 03:18:31;;;;;;;;;61.00;45.33;;;;;2.44;67.89;101258.94;5023454;28;45281;-58
2021/12/23 03:20:57;;;;;;;;;61.33;42.33;;;;;2.47;67.80;101253.72;5023144;28;45174;-59
2021/12/23 03:23:22;;;;;;;;;63.33;45.00;;;;;2.47;68.29;101255.47;5023058;28;45394;-59
2021/12/23 03:25:48;;;;;;;;;55.00;39.25;;;;;2.45;68.36;101258.09;5022948;28;45181;-58
2021/12/23 03:28:14;;;;;;;;;66.67;52.00;;;;;2.45;67.84;101252.91;5023433;28;45220;-59
2021/12/23 03:30:40;;;;;;;;;60.75;46.25;;;;;2.45;67.91;101250.28;5023152;28;45657;-59
2021/12/23 03:33:05;;;;;;;;;54.75;43.50;;;;;2.45;68.23;101249.44;5022901;28;46058;-59
2021/12/23 03:35:31;;;;;;;;;70.00;45.67;;;;;2.44;67.91;101248.56;5022910;28;45472;-59
2021/12/23 03:37:57;;;;;;;;;68.00;48.33;;;;;2.44;68.03;101232.94;5022937;28;45418;-59
2021/12/23 03:40:23;;;;;;;;;52.25;42.50;;;;;2.44;67.71;101227.75;5038365;28;45401;-59
2021/12/23 03:42:49;;;;;;;;;73.00;44.00;;;;;2.45;67.95;101241.63;5022860;28;46183;-59
2021/12/23 03:45:15;;;;;;;;;44.00;42.33;;;;;2.46;68.53;101232.94;5022785;28;45237;-59
2021/12/23 03:47:40;;;;;;;;;60.50;37.00;;;;;2.47;67.72;101229.47;5022792;28;45411;-59
2021/12/23 03:50:07;;;;;;;;;53.00;43.33;;;;;2.46;68.17;101227.75;5022791;28;45190;-59
2021/12/23 03:52:34;;;;;;;;;62.75;47.50;;;;;2.47;68.10;101224.25;5022353;28;46441;-59
2021/12/23 03:55:00;;;;;;;;;65.00;47.33;;;;;2.47;68.24;101227.72;5022484;28;46219;-58
2021/12/23 03:57:26;;;;;;;;;48.33;38.67;;;;;2.48;68.12;101229.44;5022979;28;45260;-58
2021/12/23 03:59:51;;;;;;;;;65.00;47.33;;;;;2.47;67.80;101219.91;5022515;28;45500;-59
2021/12/23 04:02:18;;;;;;;;;59.00;46.00;;;;;2.47;68.39;101222.50;5022649;28;46064;-59
2021/12/23 04:04:43;;;;;;;;;61.33;45.00;;;;;2.48;67.77;101207.78;5022452;28;45304;-59
2021/12/23 04:07:09;;;;;;;;;60.67;45.33;;;;;2.46;67.79;101209.53;5022522;28;45438;-58
2021/12/23 04:09:34;;;;;;;;;67.33;50.00;;;;;2.46;68.11;101201.75;5022577;28;45511;-58
2021/12/23 04:12:00;;;;;;;;;67.00;46.67;;;;;2.44;67.92;101198.28;5022517;28;45858;-59
2021/12/23 04:14:25;;;;;;;;;58.25;47.00;;;;;2.45;68.30;101200.03;5022354;28;45166;-59
2021/12/23 04:16:51;;;;;;;;;63.67;47.67;;;;;2.45;68.43;101200.03;5021550;28;45153;-59
2021/12/23 04:19:17;;;;;;;;;68.33;47.33;;;;;2.45;68.11;101195.69;5022409;28;45221;-59
2021/12/23 04:21:43;;;;;;;;;68.67;47.00;;;;;2.49;67.87;101196.47;5022049;28;45313;-59
2021/12/23 04:24:09;;;;;;;;;63.25;46.75;;;;;2.50;67.84;101186.03;5021762;28;45302;-59
2021/12/23 04:26:37;;;;;;;;;68.00;49.67;;;;;2.54;68.61;101178.19;5022519;28;45294;-58
2021/12/23 04:29:06;;;;;;;;;53.00;41.33;;;;;2.56;68.54;101182.47;5022414;28;45327;-59
2021/12/23 04:31:33;;;;;;;;;58.33;45.33;;;;;2.57;68.07;101178.13;5022264;28;45447;-59
2021/12/23 04:33:59;;;;;;;;;63.33;46.67;;;;;2.59;68.24;101182.41;5022119;28;45209;-59
2021/12/23 04:36:29;;;;;;;;;55.00;44.00;;;;;2.61;68.29;101177.19;5022080;28;45455;-59
2021/12/23 04:38:56;;;;;;;;;55.00;45.00;;;;;2.61;68.15;101180.66;5022281;28;45448;-59
2021/12/23 04:41:22;;;;;;;;;66.33;45.33;;;;;2.62;68.40;101177.16;5021745;28;45306;-58
2021/12/23 04:43:47;;;;;;;;;63.33;40.67;;;;;2.65;68.28;101168.44;5022240;28;45197;-59
2021/12/23 04:46:13;;;;;;;;;57.67;45.00;;;;;2.64;68.33;101172.78;5022066;28;45285;-58
2021/12/23 04:48:39;;;;;;;;;69.00;47.00;;;;;2.66;68.34;101170.16;5021848;28;45538;-59
2021/12/23 04:51:05;;;;;;;;;65.00;46.67;;;;;2.68;67.81;101182.22;5021542;28;45547;-59
2021/12/23 04:53:31;;;;;;;;;49.67;44.00;;;;;2.70;67.90;101177.88;5021748;28;45702;-59
2021/12/23 04:55:57;;;;;;;;;71.00;49.00;;;;;2.73;68.08;101182.16;5021858;28;45399;-59
2021/12/23 04:58:22;;;;;;;;;61.67;47.00;;;;;2.75;68.21;101169.97;5022015;28;45237;-59
2021/12/23 05:00:50;;;;;;;;;61.25;44.00;;;;;2.77;67.99;101169.06;5021262;28;46173;-59
2021/12/23 05:03:18;;;;;;;;;57.67;45.00;;;;;2.80;68.05;101170.72;5021642;28;45287;-59
2021/12/23 05:05:44;;;;;;;;;63.00;45.33;;;;;2.84;67.91;101168.91;5021591;28;45231;-58
2021/12/23 05:08:10;;;;;;;;;53.75;44.50;;;;;2.84;67.66;101161.09;5021534;28;45523;-59
2021/12/23 05:10:36;;;;;;;;;57.75;42.25;;;;;2.88;67.32;101163.63;5021325;28;45546;-58
2021/12/23 05:13:03;;;;;;;;;60.67;45.67;;;;;2.88;68.25;101155.81;5021584;28;45319;-59
2021/12/23 05:15:28;;;;;;;;;54.00;40.50;;;;;2.90;67.71;101150.56;5021463;28;45422;-58
2021/12/23 05:17:54;;;;;;;;;70.00;48.50;;;;;2.90;67.75;101154.03;5021641;28;45538;-59
2021/12/23 05:20:20;;;;;;;;;58.50;41.75;;;;;2.90;67.79;101142.78;5021291;28;45888;-59
2021/12/23 05:22:47;;;;;;;;;59.67;45.33;;;;;2.91;67.97;101137.53;5021109;28;45292;-59
2021/12/23 05:25:13;;;;;;;;;63.00;46.33;;;;;2.91;68.11;101128.88;5021501;28;45308;-59
2021/12/23 05:27:39;;;;;;;;;67.33;47.00;;;;;2.94;67.79;101126.22;5021507;28;45217;-58
2021/12/23 05:30:07;;;;;;;;;70.67;48.67;;;;;2.95;67.92;101123.59;5021191;28;45289;-59
2021/12/23 05:32:32;;;;;;;;;68.33;47.00;;;;;2.95;67.92;101126.19;5021095;28;45527;-58
2021/12/23 05:34:58;;;;;;;;;54.33;44.00;;;;;2.93;67.64;101120.16;5021168;28;45317;-58
2021/12/23 05:37:23;;;;;;;;;64.33;50.00;;;;;2.93;67.39;101117.56;5021345;28;45277;-59
2021/12/23 05:39:49;;;;;;;;;64.67;46.67;;;;;2.94;67.88;101116.66;5020884;28;46064;-58
2021/12/23 05:42:14;;;;;;;;;53.50;40.75;;;;;2.95;67.91;101114.91;5021320;28;45292;-59
2021/12/23 05:44:40;;;;;;;;;65.50;46.25;;;;;2.95;67.73;101120.97;5021093;28;45287;-59
2021/12/23 05:47:06;;;;;;;;;66.33;49.33;;;;;2.96;67.76;101121.84;5021010;28;45656;-59
2021/12/23 05:49:31;;;;;;;;;64.00;43.75;;;;;2.97;68.06;101121.78;5036129;28;45404;-59
2021/12/23 05:51:57;;;;;;;;;64.67;46.67;;;;;2.98;67.77;101120.03;5020742;28;45383;-59
2021/12/23 05:54:23;;;;;;;;;69.00;48.33;;;;;3.00;67.59;101121.75;5020945;28;45253;-59
2021/12/23 05:56:49;;;;;;;;;60.00;45.00;;;;;3.02;68.08;101109.56;5020987;28;45122;-59
2021/12/23 05:59:14;;;;;;;;;53.50;43.75;;;;;3.02;68.10;101113.91;5020675;28;46177;-59
2021/12/23 06:01:40;;;;;;;;;57.50;45.00;;;;;3.03;67.92;101111.25;5008196;28;45491;-59
2021/12/23 06:04:05;;;;;;;;;54.75;42.00;;;;;3.05;67.68;101116.41;5020975;28;45302;-59
2021/12/23 06:06:31;;;;;;;;;62.33;47.33;;;;;3.06;67.87;101112.94;5020732;28;45294;-58
2021/12/23 06:08:56;;;;;;;;;57.50;41.75;;;;;3.05;68.09;101104.25;5020665;28;45399;-59
2021/12/23 06:11:22;;;;;;;;;64.33;48.33;;;;;3.06;67.89;101112.94;5020713;28;45328;-58
2021/12/23 06:13:47;;;;;;;;;57.75;43.50;;;;;3.08;67.95;101108.53;5020816;28;45463;-58
2021/12/23 06:16:13;;;;;;;;;68.67;47.00;;;;;3.09;67.97;101112.88;5020835;28;45571;-59
2021/12/23 06:18:38;;;;;;;;;68.33;48.67;;;;;3.10;67.84;101113.72;5020416;28;46293;-59
2021/12/23 06:21:04;;;;;;;;;61.00;46.50;;;;;3.11;68.11;101113.69;5020704;28;45316;-59
2021/12/23 06:23:31;;;;;;;;;62.67;46.00;;;;;3.11;67.71;101112.84;5020465;28;45349;-59
2021/12/23 06:25:56;;;;;;;;;69.00;49.33;;;;;3.10;68.14;101118.94;5020741;28;45531;-59
2021/12/23 06:28:22;;;;;;;;;63.67;46.00;;;;;3.12;68.00;101117.16;5020545;28;45398;-59
2021/12/23 06:30:47;;;;;;;;;57.00;44.00;;;;;3.13;67.95;101114.50;5020466;28;45167;-59
2021/12/23 06:33:13;;;;;;;;;62.67;47.67;;;;;3.16;67.96;101113.56;5020602;28;45429;-59
2021/12/23 06:35:39;;;;;;;;;61.25;42.75;;;;;3.17;67.93;101120.50;5020384;28;45221;-59
2021/12/23 06:38:07;;;;;;;;;60.33;45.00;;;;;3.19;67.99;101121.31;5020071;28;45406;-59
2021/12/23 06:40:33;;;;;;;;;65.00;46.67;;;;;3.20;67.87;101129.09;5021751;28;45254;-59
2021/12/23 06:42:59;;;;;;;;;62.00;44.00;;;;;3.22;68.12;101129.06;5023888;28;45341;-59
2021/12/23 06:45:25;;;;;;;;;63.00;47.33;;;;;3.21;67.76;101124.75;5023960;28;45386;-59
2021/12/23 06:47:50;;;;;;;;;64.50;48.00;;;;;3.23;68.13;101128.16;5023578;28;45310;-59
2021/12/23 06:50:18;;;;;;;;;67.67;48.00;;;;;3.23;67.51;101121.19;5023505;28;45232;-59
2021/12/23 06:52:45;;;;;;;;;57.00;45.67;;;;;3.24;67.92;101127.25;5023262;28;45284;-59
2021/12/23 06:55:12;;;;;;;;;55.00;45.00;;;;;3.24;68.08;101127.25;5023619;28;45595;-59
2021/12/23 06:57:42;;;;;;;;;67.33;52.33;;;;;3.27;67.99;101127.22;5023391;28;45384;-59
2021/12/23 07:00:11;;;;;;;;;69.00;45.67;;;;;3.28;67.87;101121.97;5023392;28;45182;-59
2021/12/23 07:02:39;;;;;;;;;65.67;50.33;;;;;3.30;68.10;101125.38;5023438;28;45259;-59
2021/12/23 07:05:06;;;;;;;;;67.33;46.67;;;;;3.33;68.07;101134.88;5023625;28;45478;-59
2021/12/23 07:07:40;;;;;;;;;62.33;46.00;;;;;3.34;68.16;101132.25;5022956;28;46130;-59
2021/12/23 07:10:07;;;;;;;;;57.67;44.00;;;;;3.35;67.91;101136.56;5023346;28;45273;-59
2021/12/23 07:12:33;;;;;;;;;64.33;49.33;;;;;3.36;67.63;101127.00;5023319;28;45293;-59
2021/12/23 07:14:58;;;;;;;;;69.00;49.33;;;;;3.38;68.14;101132.16;5023376;28;45332;-59
2021/12/23 07:17:24;;;;;;;;;58.67;43.33;;;;;3.40;67.57;101138.19;5022740;28;45332;-59
2021/12/23 07:19:50;;;;;;;;;67.00;49.00;;;;;3.41;68.22;101132.09;5023429;28;45637;-59
2021/12/23 07:22:15;;;;;;;;;61.75;48.75;;;;;3.44;68.16;101142.44;5022991;28;45364;-59
2021/12/23 07:24:41;;;;;;;;;66.75;47.50;;;;;3.45;68.25;101137.19;5023323;28;45284;-59
2021/12/23 07:27:07;;;;;;;;;57.75;44.25;;;;;3.46;68.51;101143.25;5022868;28;45312;-59
2021/12/23 07:29:33;;;;;;;;;64.50;44.00;;;;;3.48;68.29;101139.75;5023256;28;45371;-59
2021/12/23 07:31:59;;;;;;;;;41.00;27.67;;;;;3.52;68.49;101150.94;5022913;28;45451;-59
2021/12/23 07:34:25;;;;;;;;;67.25;49.00;;;;;3.51;67.97;101150.06;5038604;28;45458;-59
2021/12/23 07:36:51;;;;;;;;;66.25;46.50;;;;;3.53;67.79;101148.28;5022363;28;45328;-59
2021/12/23 07:39:17;;;;;;;;;70.67;49.33;;;;;3.56;67.63;101145.63;5023122;28;45308;-59
2021/12/23 07:41:42;;;;;;;;;65.00;49.75;;;;;3.55;67.68;101146.50;5022992;28;45431;-59
2021/12/23 07:44:09;;;;;;;;;68.00;48.00;;;;;3.56;67.97;101142.16;5022971;28;45252;-59
2021/12/23 07:46:37;;;;;;;;;50.50;43.50;;;;;3.57;68.17;101143.88;5022570;28;45383;-59
2021/12/23 07:49:04;;;;;;;;;62.00;44.33;;;;;3.61;67.41;101145.50;5022360;28;45303;-59
2021/12/23 07:51:30;;;;;;;;;54.75;40.00;;;;;3.63;68.03;101148.91;5021573;28;45168;-59
2021/12/23 07:53:56;;;;;;;;;64.33;49.67;;;;;3.70;67.55;101144.41;5022776;28;45439;-59
2021/12/23 07:56:23;;;;;;;;;67.33;49.67;;;;;3.77;68.19;101148.59;5022429;28;46042;-59
2021/12/23 07:58:49;;;;;;;;;57.67;45.67;;;;;3.84;68.25;101148.41;5022625;28;45311;-59
2021/12/23 08:01:15;;;;;;;;;65.67;50.00;;;;;3.91;67.80;101141.28;5022566;28;45500;-59
2021/12/23 08:03:40;;;;;;;;;58.25;44.25;;;;;3.96;67.74;101136.81;5022617;28;45423;-59
2021/12/23 08:06:06;;;;;;;;;66.75;50.25;;;;;4.03;67.42;101141.00;5022102;28;45896;-59
2021/12/23 08:08:32;;;;;;;;;64.00;49.00;;;;;4.10;67.31;101132.09;5022557;28;45319;-59
2021/12/23 08:10:57;;;;;;;;;64.75;46.50;;;;;4.17;67.61;101136.25;5022393;28;45463;-59
2021/12/23 08:13:23;;;;;;;;;57.00;45.50;;;;;4.25;67.41;101135.19;5021235;28;45388;-59
2021/12/23 08:15:48;;;;;;;;;70.50;51.00;;;;;4.31;67.14;101135.88;5022047;28;45379;-59
2021/12/23 08:18:14;;;;;;;;;66.75;49.00;;;;;4.37;66.53;101134.88;5022411;28;45326;-59
2021/12/23 08:20:39;;;;;;;;;75.00;56.00;;;;;4.43;67.26;101135.56;5022327;28;45609;-59
2021/12/23 08:23:05;;;;;;;;;73.00;54.00;;;;;4.47;66.61;101137.16;5022094;28;45312;-59
2021/12/23 08:25:31;;;;;;;;;63.33;49.33;;;;;4.54;67.10;101140.47;5022017;28;46144;-62
2021/12/23 08:27:57;;;;;;;;;69.33;51.00;;;;;4.58;66.61;101134.28;5022160;28;45280;-59
2021/12/23 08:30:23;;;;;;;;;63.50;47.00;;;;;4.64;67.39;101128.00;5022086;28;45228;-59
2021/12/23 08:32:50;;;;;;;;;67.50;48.50;;;;;4.70;66.64;101133.91;5022194;28;45695;-59
2021/12/23 08:35:18;;;;;;;;;63.67;47.33;;;;;4.76;66.95;101132.91;5021819;28;45582;-59
2021/12/23 08:37:47;;;;;;;;;65.00;48.67;;;;;4.81;67.10;101124.91;5021954;28;45275;-59
2021/12/23 08:40:17;;;;;;;;;67.33;50.67;;;;;4.86;66.80;101128.25;5022050;28;45336;-59
2021/12/23 08:42:42;;;;;;;;;66.75;49.25;;;;;4.92;66.85;101121.09;5022062;28;45415;-59
2021/12/23 08:45:08;;;;;;;;;61.67;49.33;;;;;4.95;66.14;101123.63;5021658;28;45404;-59
2021/12/23 08:47:34;;;;;;;;;61.75;48.50;;;;;5.00;66.47;101123.50;5021671;28;45411;-59
2021/12/23 08:50:01;;;;;;;;;60.50;43.50;;;;;5.05;66.30;101116.34;5021872;28;45229;-59
2021/12/23 08:52:27;;;;;;;;;72.67;49.00;;;;;5.11;66.66;101117.94;5021557;28;45255;-59
2021/12/23 08:54:53;;;;;;;;;57.50;45.50;;;;;5.15;66.18;101112.56;5019797;28;47063;-59
2021/12/23 08:57:18;;;;;;;;;59.75;44.75;;;;;5.21;66.60;101114.13;5021949;28;45171;-59
2021/12/23 08:59:46;;;;;;;;;58.25;44.50;;;;;5.26;66.47;101117.47;5021227;28;45339;-59
2021/12/23 09:02:11;;;;;;;;;65.25;44.50;;;;;5.31;65.75;101103.38;5021778;28;45471;-60
2021/12/23 09:04:38;;;;;;;;;56.50;41.75;;;;;5.36;66.63;101112.78;5021011;28;45385;-59
2021/12/23 09:07:06;;;;;;;;;64.50;44.75;;;;;5.39;66.20;101108.34;5021419;28;45366;-59
2021/12/23 09:09:33;;;;;;;;;62.75;46.75;;;;;5.42;65.91;101105.63;5021392;28;45512;-59
2021/12/23 09:12:00;;;;;;;;;57.50;42.00;;;;;5.43;66.61;101115.16;5021628;28;45548;-59
2021/12/23 09:14:25;;;;;;;;;49.75;42.00;;;;;5.48;66.72;101125.47;5021217;28;46212;-59
2021/12/23 09:16:51;;;;;;;;;58.50;42.00;;;;;5.50;66.18;101118.44;5021432;28;45337;-59
2021/12/23 09:19:16;;;;;;;;;54.75;43.00;;;;;5.55;66.63;101113.94;5021472;28;45280;-59
2021/12/23 09:21:42;;;;;;;;;49.25;41.00;;;;;5.59;65.83;101119.00;5021209;28;45241;-59
2021/12/23 09:24:07;;;;;;;;;53.75;38.75;;;;;5.67;66.43;101123.13;5007713;28;46065;-59
2021/12/23 09:26:42;;;;;;;;;43.50;39.25;;;;;5.73;66.44;101122.91;5021174;28;45332;-59
2021/12/23 09:29:14;;;;;;;;;49.75;43.25;;;;;5.77;66.97;101120.16;5021226;28;45312;-59
2021/12/23 09:34:24;;;;;;;;;50.50;38.00;;;;;5.89;66.45;101103.19;5021082;28;45246;-59
2021/12/23 09:36:49;;;;;;;;;52.00;40.25;;;;;5.94;66.27;101105.69;5020548;28;45332;-60
2021/12/23 09:39:15;;;;;;;;;52.75;41.50;;;;;5.98;66.75;101112.53;5021031;28;45506;-60
2021/12/23 09:41:44;;;;;;;;;57.25;43.25;;;;;5.99;65.80;101115.06;5020983;28;45241;-59
2021/12/23 09:44:11;;;;;;;;;50.00;39.75;;;;;6.00;65.68;101110.69;5021350;28;45354;-59
2021/12/23 09:46:38;;;;;;;;;49.50;41.75;;;;;5.99;66.35;101115.06;5020994;28;45217;-60
2021/12/23 09:49:05;;;;;;;;;51.25;41.75;;;;;6.05;66.14;101106.19;5021115;28;45173;-59
2021/12/23 09:51:32;;;;;;;;;59.75;41.00;;;;;6.08;66.95;101103.44;5020548;28;45362;-59
2021/12/23 09:54:06;;;;;;;;;57.25;41.00;;;;;6.10;66.96;101106.88;5020722;28;45346;-60
2021/12/23 09:56:33;;;;;;;;;48.00;35.50;;;;;6.13;66.78;101101.53;5020725;28;45403;-59
2021/12/23 09:59:00;;;;;;;;;42.75;38.25;;;;;6.17;66.79;101102.28;5020850;28;45328;-59
2021/12/23 10:01:31;;;;;;;;;53.50;42.25;;;;;6.22;67.26;101093.34;5020808;28;45237;-59
2021/12/23 10:03:57;;;;;;;;;59.50;41.50;;;;;6.27;66.63;101096.66;5020477;28;46063;-59
2021/12/23 10:06:24;;;;;;;;;58.75;39.75;;;;;6.30;66.97;101093.94;5020123;28;45424;-59
2021/12/23 10:08:50;;;;;;;;;57.00;44.00;;;;;6.37;67.18;101090.19;5020818;28;45316;-59
2021/12/23 10:11:36;;;;;;;;;50.25;41.75;;;;;6.46;66.93;101090.75;5020572;28;45268;-59
2021/12/23 10:38:38;;;;;;;;;59.25;42.50;;;;;6.96;67.33;101060.06;5023678;28;45243;-59
2021/12/23 10:41:18;;;;;;;;;57.00;40.50;;;;;7.02;67.63;101051.94;5023730;28;45309;-59
2021/12/23 10:43:48;;;;;;;;;55.50;41.50;;;;;7.07;67.53;101052.63;5023585;28;45475;-60
2021/12/23 10:46:24;;;;;;;;;63.00;40.50;;;;;7.13;67.75;101038.44;5023488;28;45228;-59
2021/12/23 10:49:00;;;;;;;;;50.50;41.25;;;;;7.18;67.32;101037.31;5023498;28;45432;-59
2021/12/23 10:51:26;;;;;;;;;58.25;44.00;;;;;7.24;67.09;101037.09;5023295;28;45459;-59
2021/12/23 10:54:17;;;;;;;;;43.75;38.00;;;;;7.30;67.45;101037.75;5023781;28;45328;-59
2021/12/23 10:59:27;;;;;;;;;57.50;41.25;;;;;7.43;67.58;101039.81;5023448;28;45352;-59
2021/12/23 11:02:06;;;;;;;;;53.25;42.25;;;;;7.49;67.39;101036.06;5023469;28;45267;-59
2021/12/23 11:04:47;;;;;;;;;50.75;41.50;;;;;7.52;67.70;101028.94;5023553;28;45427;-59
2021/12/23 11:07:30;;;;;;;;;46.50;36.00;;;;;7.57;67.77;101029.59;5023257;28;45290;-59
2021/12/23 11:10:19;;;;;;;;;42.00;38.25;;;;;7.65;67.90;101020.56;5023600;28;45319;-59
2021/12/23 11:37:42;;;;;;;;;36.75;30.00;;;;;8.15;69.59;101010.50;5010944;28;45317;-59
2021/12/23 11:40:23;;;;;;;;;48.00;37.50;;;;;8.19;69.84;101019.06;5038015;28;45461;-59
2021/12/23 11:45:34;;;;;;;;;41.50;37.00;;;;;8.22;70.01;101008.44;5011601;28;45368;-59
2021/12/23 11:48:05;;;;;;;;;37.00;33.25;;;;;8.19;70.25;101005.94;5022642;28;45870;-59
2021/12/23 11:50:41;;;;;;;;;42.00;33.50;;;;;8.19;70.22;101001.53;5022769;28;45570;-59
2021/12/23 11:53:08;;;;;;;;;37.50;32.25;;;;;8.21;70.22;100999.69;5022237;28;45419;-59
2021/12/23 11:55:35;;;;;;;;;32.75;29.75;;;;;8.25;70.25;101003.91;5022957;28;45280;-59
2021/12/23 11:58:02;;;;;;;;;30.50;25.50;;;;;8.26;70.55;100995.09;5022594;28;45719;-59
2021/12/23 12:00:42;;;;;;;;;34.50;25.50;;;;;8.28;70.62;100981.91;5022417;28;46143;-59
2021/12/23 12:03:09;;;;;;;;;42.00;35.00;;;;;8.33;70.13;100993.06;5022348;28;45473;-59
2021/12/23 12:05:36;;;;;;;;;38.25;33.25;;;;;8.36;70.40;100991.16;5022613;28;45253;-59
2021/12/23 12:08:08;;;;;;;;;46.50;37.50;;;;;8.42;70.54;100978.69;5022476;28;45642;-59
2021/12/23 12:10:34;;;;;;;;;42.25;35.50;;;;;8.48;70.37;100978.41;5022277;28;46127;-59
2021/12/23 12:13:07;;;;;;;;;37.25;30.25;;;;;8.53;70.64;100974.66;5022482;28;45354;-59
2021/12/23 12:15:47;;;;;;;;;42.00;34.00;;;;;8.57;70.12;100977.97;5022241;28;45541;-59
2021/12/23 12:18:15;;;;;;;;;36.75;30.00;;;;;8.61;70.43;100969.00;5022284;28;45368;-59
2021/12/23 12:20:47;;;;;;;;;44.25;32.25;;;;;8.65;70.57;100965.31;5021909;28;45443;-59